Rio Espera, Brazil
Current Conditions -  °F | °C
As of 6:00 AM on Saturday 29 Nov 2014 (Local Time) from SBBQ Reporting Station
Haze Haze  
Wind Chill: 63°   Ceiling: 300
Heat Index: 63°   Visibility: 3mi
Dew Point: 61°   Wind: 5mph
Humidity: 94%   Direction: 90°E
Pressure: 30.18"   Gusts: NA
Location:  20.86°S, 43.47°W
Report Text: SBBQ 290800Z 09004KT 5000 BR OVC003 17/16 Q1022
Loading
Personal Weather Stations






























Interactive Weather Map New forecast layout! Learn more

10-Day Weather Forecast

Advertisements
Track Severe Weather on mobile